Scio Township, Michigan
Current Conditions -  °F | °C
As of 11:53 PM on Saturday 20 Dec 2014 (Local Time) from KARB Reporting Station
Overcast Overcast  
Wind Chill: 22°   Ceiling: 2700
Heat Index: 22°   Visibility: 7mi
Dew Point: 21°   Wind: 0mph
Humidity: 96%   Direction: NA
Pressure: 30.27"   Gusts: NA
Location:  42.2601°N, 83.8448°W
Report Text: KARB 210453Z AUTO 00000KT 7SM OVC027 M06/M06 A3027 RMK AO2 SLP262 T10561061 410111056
Loading
Personal Weather Stations






























Interactive Weather Map New forecast layout! Learn more

10-Day Weather Forecast

Advertisements
Track Severe Weather on mobile